sensor_id;sensor_type;location;lat;lon;timestamp;P1;durP1;ratioP1;P2;durP2;ratioP2
66721;SDS011;53633;49.932;10.884;2022-09-02T00:00:53;3.72;;;1.30;;
66721;SDS011;53633;49.932;10.884;2022-09-02T00:03:21;4.10;;;1.17;;
66721;SDS011;53633;49.932;10.884;2022-09-02T00:05:48;5.50;;;1.43;;
66721;SDS011;53633;49.932;10.884;2022-09-02T00:08:15;4.72;;;1.73;;
66721;SDS011;53633;49.932;10.884;2022-09-02T00:10:42;3.85;;;1.27;;
66721;SDS011;53633;49.932;10.884;2022-09-02T00:13:10;5.07;;;1.08;;
66721;SDS011;53633;49.932;10.884;2022-09-02T00:15:38;3.40;;;1.17;;
66721;SDS011;53633;49.932;10.884;2022-09-02T00:18:07;3.20;;;1.10;;
66721;SDS011;53633;49.932;10.884;2022-09-02T00:20:41;4.15;;;1.15;;
66721;SDS011;53633;49.932;10.884;2022-09-02T00:23:10;5.13;;;1.23;;
66721;SDS011;53633;49.932;10.884;2022-09-02T00:25:37;3.45;;;1.40;;
66721;SDS011;53633;49.932;10.884;2022-09-02T00:28:04;3.05;;;1.02;;
66721;SDS011;53633;49.932;10.884;2022-09-02T00:30:32;4.23;;;1.43;;
66721;SDS011;53633;49.932;10.884;2022-09-02T00:33:00;3.35;;;1.33;;
66721;SDS011;53633;49.932;10.884;2022-09-02T00:35:28;3.75;;;1.33;;
66721;SDS011;53633;49.932;10.884;2022-09-02T00:37:55;3.88;;;1.38;;
66721;SDS011;53633;49.932;10.884;2022-09-02T00:40:21;3.33;;;1.20;;
66721;SDS011;53633;49.932;10.884;2022-09-02T00:42:49;4.23;;;1.10;;
66721;SDS011;53633;49.932;10.884;2022-09-02T00:45:16;4.97;;;1.63;;
66721;SDS011;53633;49.932;10.884;2022-09-02T00:47:43;3.38;;;1.30;;
66721;SDS011;53633;49.932;10.884;2022-09-02T00:50:12;4.88;;;1.30;;
66721;SDS011;53633;49.932;10.884;2022-09-02T00:52:42;3.63;;;1.30;;
66721;SDS011;53633;49.932;10.884;2022-09-02T00:55:12;4.10;;;1.23;;
66721;SDS011;53633;49.932;10.884;2022-09-02T00:57:43;3.97;;;1.40;;
66721;SDS011;53633;49.932;10.884;2022-09-02T01:00:13;4.20;;;1.20;;
66721;SDS011;53633;49.932;10.884;2022-09-02T01:02:43;3.35;;;1.17;;
66721;SDS011;53633;49.932;10.884;2022-09-02T01:05:13;5.50;;;1.30;;
66721;SDS011;53633;49.932;10.884;2022-09-02T01:07:43;5.10;;;1.40;;
66721;SDS011;53633;49.932;10.884;2022-09-02T01:10:12;3.53;;;1.30;;
66721;SDS011;53633;49.932;10.884;2022-09-02T01:12:40;3.40;;;1.20;;
66721;SDS011;53633;49.932;10.884;2022-09-02T01:15:07;3.42;;;1.33;;
66721;SDS011;53633;49.932;10.884;2022-09-02T01:17:36;4.55;;;1.75;;
66721;SDS011;53633;49.932;10.884;2022-09-02T01:20:08;3.77;;;1.23;;
66721;SDS011;53633;49.932;10.884;2022-09-02T01:22:38;5.53;;;1.40;;
66721;SDS011;53633;49.932;10.884;2022-09-02T01:25:07;4.28;;;1.10;;
66721;SDS011;53633;49.932;10.884;2022-09-02T01:27:35;3.45;;;1.50;;
66721;SDS011;53633;49.932;10.884;2022-09-02T01:30:02;5.22;;;1.83;;
66721;SDS011;53633;49.932;10.884;2022-09-02T01:32:31;4.20;;;1.50;;
66721;SDS011;53633;49.932;10.884;2022-09-02T01:34:58;4.57;;;1.60;;
66721;SDS011;53633;49.932;10.884;2022-09-02T01:37:25;4.22;;;1.35;;
66721;SDS011;53633;49.932;10.884;2022-09-02T01:39:53;3.80;;;1.35;;
66721;SDS011;53633;49.932;10.884;2022-09-02T01:42:20;3.97;;;1.55;;
66721;SDS011;53633;49.932;10.884;2022-09-02T01:44:47;7.73;;;1.57;;
66721;SDS011;53633;49.932;10.884;2022-09-02T01:47:14;5.18;;;1.40;;
66721;SDS011;53633;49.932;10.884;2022-09-02T01:49:43;4.95;;;1.65;;
66721;SDS011;53633;49.932;10.884;2022-09-02T01:52:10;5.63;;;1.90;;
66721;SDS011;53633;49.932;10.884;2022-09-02T01:54:37;5.25;;;1.85;;
66721;SDS011;53633;49.932;10.884;2022-09-02T01:57:05;3.77;;;1.60;;
66721;SDS011;53633;49.932;10.884;2022-09-02T01:59:32;4.53;;;1.75;;
66721;SDS011;53633;49.932;10.884;2022-09-02T02:01:59;5.18;;;1.67;;
66721;SDS011;53633;49.932;10.884;2022-09-02T02:04:25;4.60;;;1.55;;
66721;SDS011;53633;49.932;10.884;2022-09-02T02:06:52;4.20;;;1.55;;
66721;SDS011;53633;49.932;10.884;2022-09-02T02:09:20;5.00;;;1.57;;
66721;SDS011;53633;49.932;10.884;2022-09-02T02:11:47;5.40;;;1.90;;
66721;SDS011;53633;49.932;10.884;2022-09-02T02:14:15;4.28;;;1.70;;
66721;SDS011;53633;49.932;10.884;2022-09-02T02:16:42;4.78;;;1.60;;
66721;SDS011;53633;49.932;10.884;2022-09-02T02:19:09;6.10;;;1.50;;
66721;SDS011;53633;49.932;10.884;2022-09-02T02:21:35;4.50;;;1.43;;
66721;SDS011;53633;49.932;10.884;2022-09-02T02:24:03;3.85;;;1.48;;
66721;SDS011;53633;49.932;10.884;2022-09-02T02:26:29;5.68;;;1.60;;
66721;SDS011;53633;49.932;10.884;2022-09-02T02:28:56;7.05;;;1.88;;
66721;SDS011;53633;49.932;10.884;2022-09-02T02:31:24;6.47;;;1.80;;
66721;SDS011;53633;49.932;10.884;2022-09-02T02:33:51;4.13;;;2.00;;
66721;SDS011;53633;49.932;10.884;2022-09-02T02:36:18;3.88;;;1.45;;
66721;SDS011;53633;49.932;10.884;2022-09-02T02:38:45;4.45;;;1.45;;
66721;SDS011;53633;49.932;10.884;2022-09-02T02:41:12;6.65;;;2.00;;
66721;SDS011;53633;49.932;10.884;2022-09-02T02:43:41;6.82;;;1.95;;
66721;SDS011;53633;49.932;10.884;2022-09-02T02:46:08;4.50;;;1.80;;
66721;SDS011;53633;49.932;10.884;2022-09-02T02:48:36;4.60;;;1.80;;
66721;SDS011;53633;49.932;10.884;2022-09-02T02:51:03;5.70;;;2.00;;
66721;SDS011;53633;49.932;10.884;2022-09-02T02:53:30;5.07;;;1.80;;
66721;SDS011;53633;49.932;10.884;2022-09-02T02:55:58;6.32;;;2.60;;
66721;SDS011;53633;49.932;10.884;2022-09-02T02:58:24;5.90;;;1.77;;
66721;SDS011;53633;49.932;10.884;2022-09-02T03:00:51;5.53;;;1.60;;
66721;SDS011;53633;49.932;10.884;2022-09-02T03:03:18;4.35;;;1.90;;
66721;SDS011;53633;49.932;10.884;2022-09-02T03:05:46;5.22;;;2.30;;
66721;SDS011;53633;49.932;10.884;2022-09-02T03:08:14;6.13;;;2.30;;
66721;SDS011;53633;49.932;10.884;2022-09-02T03:10:42;7.17;;;2.30;;
66721;SDS011;53633;49.932;10.884;2022-09-02T03:13:10;4.78;;;1.80;;
66721;SDS011;53633;49.932;10.884;2022-09-02T03:15:37;8.43;;;2.28;;
66721;SDS011;53633;49.932;10.884;2022-09-02T03:18:04;6.30;;;2.10;;
66721;SDS011;53633;49.932;10.884;2022-09-02T03:20:31;10.65;;;2.67;;
66721;SDS011;53633;49.932;10.884;2022-09-02T03:23:00;6.53;;;2.30;;
66721;SDS011;53633;49.932;10.884;2022-09-02T03:25:27;7.18;;;2.40;;
66721;SDS011;53633;49.932;10.884;2022-09-02T03:28:01;4.88;;;2.10;;
66721;SDS011;53633;49.932;10.884;2022-09-02T03:30:30;5.63;;;1.90;;
66721;SDS011;53633;49.932;10.884;2022-09-02T03:32:58;4.70;;;1.95;;
66721;SDS011;53633;49.932;10.884;2022-09-02T03:35:30;5.80;;;2.07;;
66721;SDS011;53633;49.932;10.884;2022-09-02T03:37:59;5.38;;;2.17;;
66721;SDS011;53633;49.932;10.884;2022-09-02T03:40:26;5.35;;;2.47;;
66721;SDS011;53633;49.932;10.884;2022-09-02T03:42:53;5.75;;;2.25;;
66721;SDS011;53633;49.932;10.884;2022-09-02T03:45:25;7.47;;;1.98;;
66721;SDS011;53633;49.932;10.884;2022-09-02T03:47:52;5.80;;;2.17;;
66721;SDS011;53633;49.932;10.884;2022-09-02T03:50:19;4.80;;;2.00;;
66721;SDS011;53633;49.932;10.884;2022-09-02T03:52:48;6.97;;;3.00;;
66721;SDS011;53633;49.932;10.884;2022-09-02T03:55:16;6.72;;;2.33;;
66721;SDS011;53633;49.932;10.884;2022-09-02T03:57:44;7.68;;;2.55;;
66721;SDS011;53633;49.932;10.884;2022-09-02T04:00:12;6.47;;;2.40;;
66721;SDS011;53633;49.932;10.884;2022-09-02T04:02:41;7.72;;;2.38;;
66721;SDS011;53633;49.932;10.884;2022-09-02T04:05:11;5.60;;;2.28;;
66721;SDS011;53633;49.932;10.884;2022-09-02T04:07:41;4.97;;;1.80;;
66721;SDS011;53633;49.932;10.884;2022-09-02T04:10:12;6.00;;;2.10;;
66721;SDS011;53633;49.932;10.884;2022-09-02T04:12:41;4.83;;;2.00;;
66721;SDS011;53633;49.932;10.884;2022-09-02T04:15:08;5.70;;;2.30;;
66721;SDS011;53633;49.932;10.884;2022-09-02T04:23:44;5.38;;;1.90;;
66721;SDS011;53633;49.932;10.884;2022-09-02T04:26:12;5.10;;;2.10;;
66721;SDS011;53633;49.932;10.884;2022-09-02T04:28:41;5.07;;;2.10;;
66721;SDS011;53633;49.932;10.884;2022-09-02T04:31:09;5.70;;;2.20;;
66721;SDS011;53633;49.932;10.884;2022-09-02T04:33:38;7.15;;;2.70;;
66721;SDS011;53633;49.932;10.884;2022-09-02T04:36:06;5.63;;;2.30;;
66721;SDS011;53633;49.932;10.884;2022-09-02T04:38:34;7.23;;;2.50;;
66721;SDS011;53633;49.932;10.884;2022-09-02T04:41:04;5.28;;;2.25;;
66721;SDS011;53633;49.932;10.884;2022-09-02T04:43:31;10.05;;;2.65;;
66721;SDS011;53633;49.932;10.884;2022-09-02T04:46:00;8.82;;;2.38;;
66721;SDS011;53633;49.932;10.884;2022-09-02T04:48:29;6.53;;;2.40;;
66721;SDS011;53633;49.932;10.884;2022-09-02T04:50:56;6.70;;;2.40;;
66721;SDS011;53633;49.932;10.884;2022-09-02T04:53:23;8.63;;;2.40;;
66721;SDS011;53633;49.932;10.884;2022-09-02T04:55:49;6.43;;;2.28;;
66721;SDS011;53633;49.932;10.884;2022-09-02T04:58:23;7.25;;;2.50;;
66721;SDS011;53633;49.932;10.884;2022-09-02T05:00:49;5.30;;;2.40;;
66721;SDS011;53633;49.932;10.884;2022-09-02T05:03:18;7.03;;;2.60;;
66721;SDS011;53633;49.932;10.884;2022-09-02T05:05:44;5.47;;;2.22;;
66721;SDS011;53633;49.932;10.884;2022-09-02T05:08:11;6.50;;;2.80;;
66721;SDS011;53633;49.932;10.884;2022-09-02T05:10:38;7.55;;;2.50;;
66721;SDS011;53633;49.932;10.884;2022-09-02T05:13:05;5.88;;;2.17;;
66721;SDS011;53633;49.932;10.884;2022-09-02T05:15:32;7.63;;;2.60;;
66721;SDS011;53633;49.932;10.884;2022-09-02T05:18:03;5.53;;;2.28;;
66721;SDS011;53633;49.932;10.884;2022-09-02T05:20:31;6.82;;;2.55;;
66721;SDS011;53633;49.932;10.884;2022-09-02T05:22:57;9.20;;;2.88;;
66721;SDS011;53633;49.932;10.884;2022-09-02T05:25:24;6.35;;;2.30;;
66721;SDS011;53633;49.932;10.884;2022-09-02T05:27:51;7.63;;;2.50;;
66721;SDS011;53633;49.932;10.884;2022-09-02T05:30:17;7.70;;;3.05;;
66721;SDS011;53633;49.932;10.884;2022-09-02T05:32:44;8.07;;;2.85;;
66721;SDS011;53633;49.932;10.884;2022-09-02T05:35:11;8.15;;;2.25;;
66721;SDS011;53633;49.932;10.884;2022-09-02T05:37:39;4.97;;;2.05;;
66721;SDS011;53633;49.932;10.884;2022-09-02T05:40:06;7.33;;;2.37;;
66721;SDS011;53633;49.932;10.884;2022-09-02T05:42:34;7.10;;;2.40;;
66721;SDS011;53633;49.932;10.884;2022-09-02T05:45:01;5.88;;;2.28;;
66721;SDS011;53633;49.932;10.884;2022-09-02T05:47:27;5.85;;;2.25;;
66721;SDS011;53633;49.932;10.884;2022-09-02T05:49:54;6.47;;;2.25;;
66721;SDS011;53633;49.932;10.884;2022-09-02T05:52:21;6.60;;;2.80;;
66721;SDS011;53633;49.932;10.884;2022-09-02T05:54:49;5.57;;;2.10;;
66721;SDS011;53633;49.932;10.884;2022-09-02T05:57:16;6.70;;;2.00;;
66721;SDS011;53633;49.932;10.884;2022-09-02T05:59:43;5.53;;;2.03;;
66721;SDS011;53633;49.932;10.884;2022-09-02T06:02:11;8.20;;;2.10;;
66721;SDS011;53633;49.932;10.884;2022-09-02T06:04:40;4.67;;;2.20;;
66721;SDS011;53633;49.932;10.884;2022-09-02T06:07:07;8.32;;;2.17;;
66721;SDS011;53633;49.932;10.884;2022-09-02T06:09:36;6.43;;;2.45;;
66721;SDS011;53633;49.932;10.884;2022-09-02T06:12:05;7.45;;;1.85;;
66721;SDS011;53633;49.932;10.884;2022-09-02T06:14:34;6.25;;;2.00;;
66721;SDS011;53633;49.932;10.884;2022-09-02T06:17:01;5.10;;;2.00;;
66721;SDS011;53633;49.932;10.884;2022-09-02T06:19:30;6.47;;;1.70;;
66721;SDS011;53633;49.932;10.884;2022-09-02T06:21:57;5.18;;;1.65;;
66721;SDS011;53633;49.932;10.884;2022-09-02T06:24:26;4.75;;;1.70;;
66721;SDS011;53633;49.932;10.884;2022-09-02T06:26:53;4.22;;;1.77;;
66721;SDS011;53633;49.932;10.884;2022-09-02T06:29:22;3.63;;;1.37;;
66721;SDS011;53633;49.932;10.884;2022-09-02T06:31:50;3.30;;;1.40;;
66721;SDS011;53633;49.932;10.884;2022-09-02T06:34:18;4.72;;;0.98;;
66721;SDS011;53633;49.932;10.884;2022-09-02T06:36:46;5.95;;;1.30;;
66721;SDS011;53633;49.932;10.884;2022-09-02T06:39:15;5.13;;;1.45;;
66721;SDS011;53633;49.932;10.884;2022-09-02T06:41:44;4.30;;;1.47;;
66721;SDS011;53633;49.932;10.884;2022-09-02T06:44:11;3.95;;;1.23;;
66721;SDS011;53633;49.932;10.884;2022-09-02T06:46:42;4.20;;;1.17;;
66721;SDS011;53633;49.932;10.884;2022-09-02T06:49:11;4.22;;;1.60;;
66721;SDS011;53633;49.932;10.884;2022-09-02T06:51:38;6.40;;;1.50;;
66721;SDS011;53633;49.932;10.884;2022-09-02T06:54:08;4.40;;;1.60;;
66721;SDS011;53633;49.932;10.884;2022-09-02T06:56:39;3.70;;;1.48;;
66721;SDS011;53633;49.932;10.884;2022-09-02T06:59:12;5.07;;;1.50;;
66721;SDS011;53633;49.932;10.884;2022-09-02T07:01:39;3.92;;;1.77;;
66721;SDS011;53633;49.932;10.884;2022-09-02T07:04:07;3.65;;;1.50;;
66721;SDS011;53633;49.932;10.884;2022-09-02T07:06:34;3.67;;;1.30;;
66721;SDS011;53633;49.932;10.884;2022-09-02T07:09:01;5.13;;;1.58;;
66721;SDS011;53633;49.932;10.884;2022-09-02T07:11:29;5.05;;;1.73;;
66721;SDS011;53633;49.932;10.884;2022-09-02T07:13:55;3.92;;;1.92;;
66721;SDS011;53633;49.932;10.884;2022-09-02T07:16:22;3.97;;;2.00;;
66721;SDS011;53633;49.932;10.884;2022-09-02T07:18:52;4.73;;;1.90;;
66721;SDS011;53633;49.932;10.884;2022-09-02T07:21:21;3.65;;;1.60;;
66721;SDS011;53633;49.932;10.884;2022-09-02T07:23:47;4.35;;;2.00;;
66721;SDS011;53633;49.932;10.884;2022-09-02T07:26:15;4.30;;;2.03;;
66721;SDS011;53633;49.932;10.884;2022-09-02T07:28:42;4.90;;;2.00;;
66721;SDS011;53633;49.932;10.884;2022-09-02T07:31:09;6.23;;;2.10;;
66721;SDS011;53633;49.932;10.884;2022-09-02T07:33:37;3.35;;;1.90;;
66721;SDS011;53633;49.932;10.884;2022-09-02T07:36:05;6.97;;;2.30;;
66721;SDS011;53633;49.932;10.884;2022-09-02T07:38:39;6.88;;;2.13;;
66721;SDS011;53633;49.932;10.884;2022-09-02T07:41:07;6.95;;;2.00;;
66721;SDS011;53633;49.932;10.884;2022-09-02T07:43:35;5.13;;;2.10;;
66721;SDS011;53633;49.932;10.884;2022-09-02T07:46:03;3.80;;;2.00;;
66721;SDS011;53633;49.932;10.884;2022-09-02T07:48:31;3.40;;;1.75;;
66721;SDS011;53633;49.932;10.884;2022-09-02T07:51:00;4.20;;;2.00;;
66721;SDS011;53633;49.932;10.884;2022-09-02T07:53:27;5.07;;;2.10;;
66721;SDS011;53633;49.932;10.884;2022-09-02T07:55:56;4.27;;;2.20;;
66721;SDS011;53633;49.932;10.884;2022-09-02T07:58:23;4.35;;;2.25;;
66721;SDS011;53633;49.932;10.884;2022-09-02T08:00:51;4.85;;;1.90;;
66721;SDS011;53633;49.932;10.884;2022-09-02T08:03:18;5.07;;;2.05;;
66721;SDS011;53633;49.932;10.884;2022-09-02T08:05:45;4.32;;;1.48;;
66721;SDS011;53633;49.932;10.884;2022-09-02T08:08:12;5.37;;;1.87;;
66721;SDS011;53633;49.932;10.884;2022-09-02T08:10:40;4.00;;;1.75;;
66721;SDS011;53633;49.932;10.884;2022-09-02T08:13:09;4.72;;;2.00;;
66721;SDS011;53633;49.932;10.884;2022-09-02T08:15:36;2.80;;;1.30;;
66721;SDS011;53633;49.932;10.884;2022-09-02T08:18:03;2.88;;;1.42;;
66721;SDS011;53633;49.932;10.884;2022-09-02T08:20:30;3.20;;;1.50;;
66721;SDS011;53633;49.932;10.884;2022-09-02T08:22:57;4.00;;;1.38;;
66721;SDS011;53633;49.932;10.884;2022-09-02T08:25:37;3.67;;;1.15;;
66721;SDS011;53633;49.932;10.884;2022-09-02T08:28:04;3.55;;;1.60;;
66721;SDS011;53633;49.932;10.884;2022-09-02T08:30:33;5.88;;;1.23;;
66721;SDS011;53633;49.932;10.884;2022-09-02T08:33:00;3.43;;;0.90;;
66721;SDS011;53633;49.932;10.884;2022-09-02T08:35:26;3.38;;;1.08;;
66721;SDS011;53633;49.932;10.884;2022-09-02T08:37:56;3.13;;;0.90;;
66721;SDS011;53633;49.932;10.884;2022-09-02T08:40:24;4.25;;;1.02;;
66721;SDS011;53633;49.932;10.884;2022-09-02T08:42:56;3.35;;;0.85;;
66721;SDS011;53633;49.932;10.884;2022-09-02T08:45:24;4.57;;;1.20;;
66721;SDS011;53633;49.932;10.884;2022-09-02T08:48:06;3.03;;;1.00;;
66721;SDS011;53633;49.932;10.884;2022-09-02T08:50:40;2.30;;;0.70;;
66721;SDS011;53633;49.932;10.884;2022-09-02T08:53:13;3.90;;;1.17;;
66721;SDS011;53633;49.932;10.884;2022-09-02T08:55:44;2.60;;;0.90;;
66721;SDS011;53633;49.932;10.884;2022-09-02T08:58:16;2.87;;;1.10;;
66721;SDS011;53633;49.932;10.884;2022-09-02T09:00:44;4.15;;;1.27;;
66721;SDS011;53633;49.932;10.884;2022-09-02T09:03:19;3.45;;;1.40;;
66721;SDS011;53633;49.932;10.884;2022-09-02T09:05:52;3.55;;;1.10;;
66721;SDS011;53633;49.932;10.884;2022-09-02T09:08:29;3.40;;;1.10;;
66721;SDS011;53633;49.932;10.884;2022-09-02T09:11:04;3.53;;;1.10;;
66721;SDS011;53633;49.932;10.884;2022-09-02T09:16:39;3.47;;;1.30;;
66721;SDS011;53633;49.932;10.884;2022-09-02T09:19:13;4.60;;;1.15;;
66721;SDS011;53633;49.932;10.884;2022-09-02T09:21:41;2.92;;;1.10;;
66721;SDS011;53633;49.932;10.884;2022-09-02T09:24:15;3.33;;;1.20;;
66721;SDS011;53633;49.932;10.884;2022-09-02T09:26:46;3.45;;;0.98;;
66721;SDS011;53633;49.932;10.884;2022-09-02T09:29:13;2.63;;;1.00;;
66721;SDS011;53633;49.932;10.884;2022-09-02T09:31:39;4.32;;;1.20;;
66721;SDS011;53633;49.932;10.884;2022-09-02T09:34:08;3.97;;;0.90;;
66721;SDS011;53633;49.932;10.884;2022-09-02T09:36:45;2.87;;;1.20;;
66721;SDS011;53633;49.932;10.884;2022-09-02T09:39:24;2.70;;;1.08;;
66721;SDS011;53633;49.932;10.884;2022-09-02T09:41:54;2.70;;;1.33;;
66721;SDS011;53633;49.932;10.884;2022-09-02T09:47:13;3.20;;;1.20;;
66721;SDS011;53633;49.932;10.884;2022-09-02T09:49:43;3.97;;;1.20;;
66721;SDS011;53633;49.932;10.884;2022-09-02T09:52:12;4.63;;;1.20;;
66721;SDS011;53633;49.932;10.884;2022-09-02T09:54:49;5.30;;;1.05;;
66721;SDS011;53633;49.932;10.884;2022-09-02T09:57:50;6.55;;;1.10;;
66721;SDS011;53633;49.932;10.884;2022-09-02T10:00:21;2.95;;;1.05;;
66721;SDS011;53633;49.932;10.884;2022-09-02T10:02:53;3.07;;;1.10;;
66721;SDS011;53633;49.932;10.884;2022-09-02T10:05:32;2.40;;;1.10;;
66721;SDS011;53633;49.932;10.884;2022-09-02T10:08:02;2.25;;;0.73;;
66721;SDS011;53633;49.932;10.884;2022-09-02T10:10:40;4.47;;;1.10;;
66721;SDS011;53633;49.932;10.884;2022-09-02T10:13:21;2.63;;;0.90;;
66721;SDS011;53633;49.932;10.884;2022-09-02T10:15:53;3.60;;;0.90;;
66721;SDS011;53633;49.932;10.884;2022-09-02T10:18:30;3.03;;;0.80;;
66721;SDS011;53633;49.932;10.884;2022-09-02T10:21:02;1.83;;;0.70;;
66721;SDS011;53633;49.932;10.884;2022-09-02T10:23:46;2.10;;;0.75;;
66721;SDS011;53633;49.932;10.884;2022-09-02T10:26:23;3.42;;;0.98;;
66721;SDS011;53633;49.932;10.884;2022-09-02T10:32:06;2.05;;;0.50;;
66721;SDS011;53633;49.932;10.884;2022-09-02T10:34:45;2.88;;;0.88;;
66721;SDS011;53633;49.932;10.884;2022-09-02T10:37:19;4.00;;;0.80;;
66721;SDS011;53633;49.932;10.884;2022-09-02T10:39:56;3.50;;;0.98;;
66721;SDS011;53633;49.932;10.884;2022-09-02T10:42:38;2.40;;;1.00;;
66721;SDS011;53633;49.932;10.884;2022-09-02T10:45:22;2.33;;;0.77;;
66721;SDS011;53633;49.932;10.884;2022-09-02T10:47:56;1.95;;;0.68;;
66721;SDS011;53633;49.932;10.884;2022-09-02T10:50:33;3.45;;;0.90;;
66721;SDS011;53633;49.932;10.884;2022-09-02T10:53:08;2.53;;;0.82;;
66721;SDS011;53633;49.932;10.884;2022-09-02T10:55:59;5.13;;;1.00;;
66721;SDS011;53633;49.932;10.884;2022-09-02T10:58:33;3.05;;;0.93;;
66721;SDS011;53633;49.932;10.884;2022-09-02T11:01:04;3.80;;;0.98;;
66721;SDS011;53633;49.932;10.884;2022-09-02T11:03:34;2.28;;;0.80;;
66721;SDS011;53633;49.932;10.884;2022-09-02T11:06:08;16.60;;;1.73;;
66721;SDS011;53633;49.932;10.884;2022-09-02T11:08:38;2.37;;;0.90;;
66721;SDS011;53633;49.932;10.884;2022-09-02T11:11:10;4.10;;;1.10;;
66721;SDS011;53633;49.932;10.884;2022-09-02T11:13:49;3.15;;;0.90;;
66721;SDS011;53633;49.932;10.884;2022-09-02T11:16:22;2.63;;;1.08;;
66721;SDS011;53633;49.932;10.884;2022-09-02T11:18:54;2.95;;;0.77;;
66721;SDS011;53633;49.932;10.884;2022-09-02T11:21:29;3.57;;;0.70;;
66721;SDS011;53633;49.932;10.884;2022-09-02T11:24:04;4.63;;;1.00;;
66721;SDS011;53633;49.932;10.884;2022-09-02T11:26:37;2.60;;;0.82;;
66721;SDS011;53633;49.932;10.884;2022-09-02T11:29:09;2.83;;;0.95;;
66721;SDS011;53633;49.932;10.884;2022-09-02T11:31:41;3.35;;;0.93;;
66721;SDS011;53633;49.932;10.884;2022-09-02T11:34:16;2.40;;;0.90;;
66721;SDS011;53633;49.932;10.884;2022-09-02T11:36:50;2.78;;;1.00;;
66721;SDS011;53633;49.932;10.884;2022-09-02T11:39:18;2.20;;;0.77;;
66721;SDS011;53633;49.932;10.884;2022-09-02T11:42:19;2.50;;;0.88;;
66721;SDS011;53633;49.932;10.884;2022-09-02T11:48:11;2.13;;;0.87;;
66721;SDS011;53633;49.932;10.884;2022-09-02T11:51:18;3.65;;;1.05;;
66721;SDS011;53633;49.932;10.884;2022-09-02T11:53:54;3.63;;;0.80;;
66721;SDS011;53633;49.932;10.884;2022-09-02T11:56:23;2.63;;;0.63;;
66721;SDS011;53633;49.932;10.884;2022-09-02T11:58:54;3.03;;;0.70;;
66721;SDS011;53633;49.932;10.884;2022-09-02T12:01:21;2.93;;;0.80;;
66721;SDS011;53633;49.932;10.884;2022-09-02T12:03:55;2.72;;;0.60;;
66721;SDS011;53633;49.932;10.884;2022-09-02T12:09:55;3.83;;;1.00;;
66721;SDS011;53633;49.932;10.884;2022-09-02T12:15:29;2.17;;;0.70;;
66721;SDS011;53633;49.932;10.884;2022-09-02T12:21:02;4.05;;;0.73;;
66721;SDS011;53633;49.932;10.884;2022-09-02T12:29:33;2.40;;;0.80;;
66721;SDS011;53633;49.932;10.884;2022-09-02T12:32:01;2.47;;;0.90;;
66721;SDS011;53633;49.932;10.884;2022-09-02T12:37:52;2.20;;;0.70;;
66721;SDS011;53633;49.932;10.884;2022-09-02T12:40:33;2.88;;;0.70;;
66721;SDS011;53633;49.932;10.884;2022-09-02T12:43:15;2.73;;;0.87;;
66721;SDS011;53633;49.932;10.884;2022-09-02T12:45:48;2.35;;;0.80;;
66721;SDS011;53633;49.932;10.884;2022-09-02T12:48:17;1.95;;;0.70;;
66721;SDS011;53633;49.932;10.884;2022-09-02T12:51:03;3.55;;;0.52;;
66721;SDS011;53633;49.932;10.884;2022-09-02T12:53:31;3.08;;;0.98;;
66721;SDS011;53633;49.932;10.884;2022-09-02T12:56:02;2.33;;;0.90;;
66721;SDS011;53633;49.932;10.884;2022-09-02T12:58:32;2.95;;;1.08;;
66721;SDS011;53633;49.932;10.884;2022-09-02T13:01:06;2.83;;;0.60;;
66721;SDS011;53633;49.932;10.884;2022-09-02T13:03:48;4.05;;;0.70;;
66721;SDS011;53633;49.932;10.884;2022-09-02T13:06:25;3.22;;;0.80;;
66721;SDS011;53633;49.932;10.884;2022-09-02T13:12:04;2.85;;;0.90;;
66721;SDS011;53633;49.932;10.884;2022-09-02T13:17:56;4.80;;;1.10;;
66721;SDS011;53633;49.932;10.884;2022-09-02T13:20:45;2.20;;;0.77;;
66721;SDS011;53633;49.932;10.884;2022-09-02T13:23:43;3.57;;;0.87;;
66721;SDS011;53633;49.932;10.884;2022-09-02T13:26:24;3.55;;;0.80;;
66721;SDS011;53633;49.932;10.884;2022-09-02T13:32:30;3.60;;;0.80;;
66721;SDS011;53633;49.932;10.884;2022-09-02T13:34:59;2.38;;;0.80;;
66721;SDS011;53633;49.932;10.884;2022-09-02T13:37:31;3.33;;;0.80;;
66721;SDS011;53633;49.932;10.884;2022-09-02T13:40:04;3.10;;;0.70;;
66721;SDS011;53633;49.932;10.884;2022-09-02T13:42:45;2.88;;;0.70;;
66721;SDS011;53633;49.932;10.884;2022-09-02T13:45:13;2.15;;;0.88;;
66721;SDS011;53633;49.932;10.884;2022-09-02T13:47:42;1.80;;;0.60;;
66721;SDS011;53633;49.932;10.884;2022-09-02T13:50:11;4.00;;;1.10;;
66721;SDS011;53633;49.932;10.884;2022-09-02T13:52:41;3.55;;;0.80;;
66721;SDS011;53633;49.932;10.884;2022-09-02T13:55:30;3.08;;;0.80;;
66721;SDS011;53633;49.932;10.884;2022-09-02T13:57:58;2.90;;;0.93;;
66721;SDS011;53633;49.932;10.884;2022-09-02T14:00:29;2.80;;;0.82;;
66721;SDS011;53633;49.932;10.884;2022-09-02T14:02:59;2.93;;;0.90;;
66721;SDS011;53633;49.932;10.884;2022-09-02T14:05:29;6.82;;;1.15;;
66721;SDS011;53633;49.932;10.884;2022-09-02T14:07:59;2.38;;;0.90;;
66721;SDS011;53633;49.932;10.884;2022-09-02T14:10:27;3.67;;;0.95;;
66721;SDS011;53633;49.932;10.884;2022-09-02T14:12:55;4.28;;;0.90;;
66721;SDS011;53633;49.932;10.884;2022-09-02T14:15:23;3.30;;;1.20;;
66721;SDS011;53633;49.932;10.884;2022-09-02T14:18:10;2.13;;;0.65;;
66721;SDS011;53633;49.932;10.884;2022-09-02T14:20:54;2.63;;;1.00;;
66721;SDS011;53633;49.932;10.884;2022-09-02T14:23:25;2.45;;;0.80;;
66721;SDS011;53633;49.932;10.884;2022-09-02T14:25:54;2.70;;;0.88;;
66721;SDS011;53633;49.932;10.884;2022-09-02T14:28:24;3.47;;;0.80;;
66721;SDS011;53633;49.932;10.884;2022-09-02T14:30:53;4.43;;;0.98;;
66721;SDS011;53633;49.932;10.884;2022-09-02T14:33:23;3.08;;;0.70;;
66721;SDS011;53633;49.932;10.884;2022-09-02T14:35:59;2.60;;;0.80;;
66721;SDS011;53633;49.932;10.884;2022-09-02T14:38:29;2.70;;;0.82;;
66721;SDS011;53633;49.932;10.884;2022-09-02T14:41:00;2.73;;;0.90;;
66721;SDS011;53633;49.932;10.884;2022-09-02T14:43:29;2.20;;;0.73;;
66721;SDS011;53633;49.932;10.884;2022-09-02T14:46:05;3.85;;;0.80;;
66721;SDS011;53633;49.932;10.884;2022-09-02T14:48:37;1.85;;;0.75;;
66721;SDS011;53633;49.932;10.884;2022-09-02T14:51:05;1.95;;;0.70;;
66721;SDS011;53633;49.932;10.884;2022-09-02T14:53:34;3.93;;;1.10;;
66721;SDS011;53633;49.932;10.884;2022-09-02T14:56:02;3.15;;;0.90;;
66721;SDS011;53633;49.932;10.884;2022-09-02T14:58:29;3.08;;;0.95;;
66721;SDS011;53633;49.932;10.884;2022-09-02T15:00:56;2.65;;;0.70;;
66721;SDS011;53633;49.932;10.884;2022-09-02T15:03:25;3.65;;;0.80;;
66721;SDS011;53633;49.932;10.884;2022-09-02T15:05:52;3.20;;;0.80;;
66721;SDS011;53633;49.932;10.884;2022-09-02T15:08:19;3.08;;;0.80;;
66721;SDS011;53633;49.932;10.884;2022-09-02T15:10:48;3.58;;;0.80;;
66721;SDS011;53633;49.932;10.884;2022-09-02T15:13:18;4.05;;;0.88;;
66721;SDS011;53633;49.932;10.884;2022-09-02T15:15:51;3.10;;;0.80;;
66721;SDS011;53633;49.932;10.884;2022-09-02T15:18:18;3.00;;;0.67;;
66721;SDS011;53633;49.932;10.884;2022-09-02T15:20:45;3.38;;;0.80;;
66721;SDS011;53633;49.932;10.884;2022-09-02T15:23:11;2.10;;;0.70;;
66721;SDS011;53633;49.932;10.884;2022-09-02T15:25:39;3.88;;;0.90;;
66721;SDS011;53633;49.932;10.884;2022-09-02T15:28:07;2.65;;;0.75;;
66721;SDS011;53633;49.932;10.884;2022-09-02T15:30:34;6.07;;;1.20;;
66721;SDS011;53633;49.932;10.884;2022-09-02T15:33:01;2.13;;;0.88;;
66721;SDS011;53633;49.932;10.884;2022-09-02T15:35:30;3.00;;;0.98;;
66721;SDS011;53633;49.932;10.884;2022-09-02T15:37:57;2.53;;;0.68;;